Westons Mills, New York
Current Conditions -  °F | °C
As of 5:55 AM on Friday 28 Nov 2014 (Local Time) from KOLE Reporting Station
Light Snow Light Snow  
Wind Chill:   Ceiling: 1800
Heat Index: 19°   Visibility: 1.2mi
Dew Point: 19°   Wind: 9mph
Humidity: 100%   Direction: 310°NW
Pressure: 30.12"   Gusts: 18mph
Location:  42.06°N, 78.38°W
Report Text: KOLE 281055Z AUTO 31008G16KT 1 1/4SM -SN SCT008 BKN018 OVC024 M07/M07 A3012 RMK AO2
Loading
Personal Weather Stations






























Interactive Weather Map New forecast layout! Learn more

10-Day Weather Forecast

Advertisements
Track Severe Weather on mobile